Time;durP1;ratioP1;P1;durP2;ratioP2;P2;SDS_P1;SDS_P2;PMS_P1;PMS_P2;Temp;Humidity;BMP_temperature;BMP_pressure;BME280_temperature;BME280_humidity;BME280_pressure;Samples;Min_cycle;Max_cycle;Signal;HPM_P1;HPM_P2
2024/04/15 00:00:08;;;;;;;7.80;1.27;;;;;;;12.86;74.39;100595.78;5387479;26;20017;-72
2024/04/15 00:02:39;;;;;;;8.05;1.75;;;;;;;12.44;77.16;100591.53;5364838;26;20054;-72
2024/04/15 00:05:09;;;;;;;7.35;1.40;;;;;;;12.13;77.46;100596.38;5395812;26;20095;-72
2024/04/15 00:07:39;;;;;;;6.38;1.48;;;;;;;12.27;76.96;100594.84;5359542;26;20013;-73
2024/04/15 00:10:10;;;;;;;7.25;1.38;;;;;;;12.37;76.67;100601.44;5392142;26;20013;-71
2024/04/15 00:12:40;;;;;;;9.02;1.45;;;;;;;12.52;76.46;100606.03;5391046;26;20485;-72
2024/04/15 00:15:10;;;;;;;6.70;1.52;;;;;;;12.52;77.22;100592.91;5392383;26;20509;-72
2024/04/15 00:17:40;;;;;;;4.63;1.30;;;;;;;12.63;76.74;100598.53;5361022;26;20010;-71
2024/04/15 00:20:11;;;;;;;5.60;1.40;;;;;;;12.71;75.96;100590.31;5394030;26;20100;-72
2024/04/15 00:22:41;;;;;;;4.35;1.17;;;;;;;12.65;76.67;100582.75;5391066;26;20017;-72
2024/04/15 00:25:11;;;;;;;10.23;1.50;;;;;;;12.62;75.59;100575.00;5397485;26;20006;-73
2024/04/15 00:27:42;;;;;;;6.38;1.25;;;;;;;12.50;73.92;100563.25;5366623;26;20083;-73
2024/04/15 00:30:12;;;;;;;6.82;1.40;;;;;;;12.46;75.93;100559.09;5400607;26;20009;-71
2024/04/15 00:32:43;;;;;;;7.70;1.10;;;;;;;12.61;76.62;100568.91;5382906;26;20013;-73
2024/04/15 00:35:13;;;;;;;7.97;1.60;;;;;;;12.13;78.02;100591.97;5395800;26;20005;-72
2024/04/15 00:37:43;;;;;;;8.88;1.40;;;;;;;12.41;77.18;100587.28;5389750;26;20005;-73
2024/04/15 00:40:14;;;;;;;6.35;1.42;;;;;;;12.39;75.48;100560.28;5398628;26;20019;-71
2024/04/15 00:42:44;;;;;;;7.65;1.33;;;;;;;12.43;75.90;100559.22;5392906;26;20013;-72
2024/04/15 00:45:33;;;;;;;5.90;1.20;;;;;;;12.42;74.90;100560.13;5371393;26;20046;-73
2024/04/15 00:48:06;;;;;;;6.97;1.10;;;;;;;12.53;74.28;100549.19;5353431;26;20228;-71
2024/04/15 00:50:40;;;;;;;8.60;1.65;;;;;;;12.52;73.71;100532.63;5355597;26;20670;-72
2024/04/15 00:53:12;;;;;;;11.00;1.42;;;;;;;12.64;73.37;100546.97;5356721;26;20033;-72
2024/04/15 00:55:44;;;;;;;7.18;1.70;;;;;;;12.54;73.97;100537.78;5353525;26;20026;-72
2024/04/15 00:58:16;;;;;;;5.10;1.40;;;;;;;12.49;74.17;100537.97;5358215;26;20025;-72
2024/04/15 01:00:47;;;;;;;7.68;1.50;;;;;;;12.53;74.53;100538.69;5357505;26;20050;-73
2024/04/15 01:03:17;;;;;;;9.25;1.70;;;;;;;12.47;75.33;100534.56;5356034;26;20018;-71
2024/04/15 01:05:49;;;;;;;5.28;1.20;;;;;;;12.51;75.82;100530.91;5354123;26;20355;-72
2024/04/15 01:08:19;;;;;;;8.98;1.50;;;;;;;12.50;75.61;100538.84;5357762;26;20341;-72
2024/04/15 01:10:49;;;;;;;6.38;1.40;;;;;;;12.41;76.84;100540.09;5354752;26;20022;-72
2024/04/15 01:13:20;;;;;;;10.15;1.40;;;;;;;12.49;77.04;100529.28;5356572;26;20010;-73
2024/04/15 01:16:00;;;;;;;6.88;1.58;;;;;;;12.41;78.59;100524.38;5324621;26;20001;-72
2024/04/15 01:18:30;;;;;;;10.07;1.65;;;;;;;12.28;79.58;100515.31;5357771;26;20782;-72
2024/04/15 01:21:00;;;;;;;10.40;1.70;;;;;;;12.34;81.29;100490.63;5354733;26;20010;-72
2024/04/15 01:23:37;;;;;;;6.18;1.60;;;;;;;12.33;81.69;100484.53;5358562;26;20506;-72
2024/04/15 01:26:07;;;;;;;7.00;1.58;;;;;;;11.92;84.07;100451.44;5356292;26;20466;-72
2024/04/15 01:28:37;;;;;;;7.70;1.67;;;;;;;11.58;87.89;100448.53;5354908;26;20010;-71
2024/04/15 01:31:08;;;;;;;9.27;1.80;;;;;;;11.24;92.35;100436.88;5357657;26;20018;-72
2024/04/15 01:33:38;;;;;;;8.10;1.80;;;;;;;11.14;93.40;100441.59;5355340;26;20100;-71
2024/04/15 01:36:08;;;;;;;7.25;1.67;;;;;;;11.34;92.88;100440.81;5327357;27;20021;-72
2024/04/15 01:38:39;;;;;;;7.13;1.60;;;;;;;11.68;91.33;100442.00;5357544;26;20050;-73
2024/04/15 01:41:09;;;;;;;4.78;1.50;;;;;;;11.85;89.72;100436.03;5357058;26;20469;-72
2024/04/15 01:43:39;;;;;;;7.38;1.60;;;;;;;11.71;89.40;100436.63;5356181;26;20014;-72
2024/04/15 01:46:09;;;;;;;7.60;1.88;;;;;;;11.68;87.46;100428.91;5352877;26;20874;-72
2024/04/15 01:48:40;;;;;;;8.55;1.90;;;;;;;11.75;86.62;100422.50;5348725;26;20478;-72
2024/04/15 01:51:10;;;;;;;6.65;1.52;;;;;;;11.62;86.96;100430.94;5358381;26;20497;-72
2024/04/15 01:53:40;;;;;;;8.60;1.80;;;;;;;11.56;86.06;100426.81;5356290;26;20025;-73
2024/04/15 01:56:11;;;;;;;8.45;1.80;;;;;;;11.61;86.17;100424.84;5356964;26;20493;-71
2024/04/15 01:58:41;;;;;;;8.07;1.40;;;;;;;11.65;84.28;100423.78;5343476;26;20034;-72
2024/04/15 02:01:11;;;;;;;8.93;2.03;;;;;;;11.68;85.22;100415.81;5357451;26;22077;-71
2024/04/15 02:03:42;;;;;;;7.72;1.70;;;;;;;11.56;85.66;100413.72;5350432;26;20006;-72
2024/04/15 02:06:13;;;;;;;10.32;1.83;;;;;;;11.67;85.34;100418.50;5350948;26;20006;-72
2024/04/15 02:08:43;;;;;;;8.10;1.70;;;;;;;11.60;86.09;100415.28;5346859;26;20757;-72
2024/04/15 02:11:13;;;;;;;10.57;1.67;;;;;;;11.41;84.65;100416.09;5321770;27;20344;-72
2024/04/15 02:13:43;;;;;;;10.23;1.77;;;;;;;11.49;85.45;100414.88;5352920;26;20057;-72
2024/04/15 02:16:14;;;;;;;7.32;1.48;;;;;;;11.44;85.15;100413.34;5355600;26;20085;-72
2024/04/15 02:18:44;;;;;;;8.70;1.42;;;;;;;11.49;84.51;100408.78;5321845;26;20011;-72
2024/04/15 02:21:15;;;;;;;6.60;1.70;;;;;;;11.45;84.24;100415.88;5354852;26;20021;-72
2024/04/15 02:23:45;;;;;;;13.55;1.88;;;;;;;11.44;83.64;100416.81;5343013;26;20054;-73
2024/04/15 02:26:15;;;;;;;5.63;1.33;;;;;;;11.40;83.64;100414.38;5351837;26;20010;-72
2024/04/15 02:28:45;;;;;;;7.97;2.10;;;;;;;11.51;82.70;100407.81;5352274;26;21264;-72
2024/04/15 02:31:16;;;;;;;7.07;1.33;;;;;;;11.33;83.21;100392.88;5355234;26;20017;-71
2024/04/15 02:33:46;;;;;;;6.57;1.67;;;;;;;11.23;83.35;100396.78;5353291;26;20014;-72
2024/04/15 02:36:16;;;;;;;8.88;1.50;;;;;;;11.39;83.39;100387.38;5348982;27;20014;-73
2024/04/15 02:38:49;;;;;;;5.82;1.63;;;;;;;11.40;83.38;100380.34;5324446;26;20033;-72
2024/04/15 02:41:19;;;;;;;8.90;1.67;;;;;;;11.40;82.22;100383.84;5358575;26;20073;-72
2024/04/15 02:43:49;;;;;;;9.77;1.45;;;;;;;11.16;83.29;100384.00;5354574;26;20458;-72
2024/04/15 02:46:19;;;;;;;8.43;1.50;;;;;;;11.22;83.28;100374.16;5381542;26;20699;-71
2024/04/15 02:48:50;;;;;;;7.45;1.63;;;;;;;11.04;83.54;100369.66;5396935;26;20303;-71
2024/04/15 02:51:20;;;;;;;6.65;1.42;;;;;;;11.11;83.19;100355.41;5400063;26;20006;-71
2024/04/15 02:53:50;;;;;;;6.50;1.52;;;;;;;10.86;83.75;100350.41;5394121;26;20748;-72
2024/04/15 02:56:21;;;;;;;7.28;1.38;;;;;;;11.08;84.10;100339.84;5402648;26;20541;-72
2024/04/15 02:58:51;;;;;;;5.22;1.40;;;;;;;11.24;83.00;100348.75;5396149;26;20005;-72
2024/04/15 03:01:21;;;;;;;4.45;1.20;;;;;;;11.16;83.68;100365.69;5400101;26;20045;-72
2024/04/15 03:03:52;;;;;;;6.22;1.30;;;;;;;11.01;83.97;100357.63;5389470;26;20364;-72
2024/04/15 03:06:22;;;;;;;7.78;2.33;;;;;;;11.08;84.86;100349.47;5399118;26;20009;-72
2024/04/15 03:08:52;;;;;;;9.27;1.80;;;;;;;11.02;84.39;100340.13;5389844;26;20006;-72
2024/04/15 03:11:23;;;;;;;11.25;1.73;;;;;;;11.05;83.16;100344.34;5401933;26;20788;-72
2024/04/15 03:13:53;;;;;;;4.85;1.23;;;;;;;11.03;83.16;100339.19;5392896;26;20110;-72
2024/04/15 03:16:23;;;;;;;5.55;1.40;;;;;;;10.97;83.56;100342.97;5390539;26;20021;-72
2024/04/15 03:18:54;;;;;;;8.85;1.50;;;;;;;11.02;83.93;100335.81;5391720;26;20013;-72
2024/04/15 03:21:24;;;;;;;8.93;1.60;;;;;;;11.15;83.52;100341.31;5364165;26;20084;-72
2024/04/15 03:23:55;;;;;;;9.05;1.70;;;;;;;11.16;82.80;100334.31;5388939;26;20017;-72
2024/04/15 03:26:25;;;;;;;6.65;1.42;;;;;;;11.00;83.66;100329.78;5370465;26;20492;-72
2024/04/15 03:28:55;;;;;;;6.55;1.70;;;;;;;10.92;84.81;100331.84;5387501;26;20037;-72
2024/04/15 03:31:26;;;;;;;6.78;1.75;;;;;;;11.02;83.78;100330.56;5396830;26;20103;-71
2024/04/15 03:33:56;;;;;;;7.03;1.40;;;;;;;11.02;84.72;100326.19;5393789;26;20660;-72
2024/04/15 03:36:27;;;;;;;7.97;1.50;;;;;;;11.09;84.92;100325.03;5391122;26;20017;-73
2024/04/15 03:38:57;;;;;;;8.50;1.90;;;;;;;10.90;85.95;100323.22;5387090;26;20006;-72
2024/04/15 03:41:28;;;;;;;7.78;1.90;;;;;;;11.03;85.69;100322.66;5387907;26;20750;-71
2024/04/15 03:43:58;;;;;;;5.78;1.50;;;;;;;10.83;87.30;100321.78;5393924;26;20071;-72
2024/04/15 03:46:28;;;;;;;6.88;1.60;;;;;;;11.02;85.81;100314.88;5394366;26;20741;-72
2024/04/15 03:48:59;;;;;;;5.78;1.52;;;;;;;10.74;86.80;100311.69;5391729;26;20008;-72
2024/04/15 03:51:29;;;;;;;10.07;1.73;;;;;;;11.06;85.95;100309.44;5363777;26;20433;-72
2024/04/15 03:54:00;;;;;;;6.10;1.40;;;;;;;11.16;85.06;100309.03;5390056;26;21892;-72
2024/04/15 03:56:30;;;;;;;7.90;1.42;;;;;;;11.10;85.42;100297.97;5387862;26;20789;-72
2024/04/15 03:59:00;;;;;;;5.57;1.50;;;;;;;11.15;85.90;100302.09;5359004;26;20023;-72
2024/04/15 04:01:31;;;;;;;7.85;1.95;;;;;;;10.95;87.22;100305.56;5395110;26;20018;-72
2024/04/15 04:04:01;;;;;;;7.53;1.50;;;;;;;10.99;86.96;100301.94;5385349;26;21828;-72
2024/04/15 04:06:31;;;;;;;10.00;2.03;;;;;;;10.80;88.39;100290.50;5386985;26;21844;-71
2024/04/15 04:09:02;;;;;;;6.63;1.70;;;;;;;10.68;87.98;100291.88;5362464;26;20446;-71
2024/04/15 04:11:32;;;;;;;6.25;1.70;;;;;;;10.65;89.50;100291.16;5397370;26;22880;-72
2024/04/15 04:14:02;;;;;;;7.35;1.35;;;;;;;10.98;88.03;100284.53;5389977;26;20025;-72
2024/04/15 04:16:33;;;;;;;5.35;1.50;;;;;;;11.20;87.23;100284.44;5403181;26;20052;-72
2024/04/15 04:19:03;;;;;;;7.35;1.58;;;;;;;11.01;87.56;100279.19;5392044;26;20013;-73
2024/04/15 04:21:33;;;;;;;4.57;1.58;;;;;;;11.07;86.76;100278.00;5401256;26;20005;-72
2024/04/15 04:24:04;;;;;;;5.88;1.40;;;;;;;11.12;87.08;100277.81;5391379;26;20025;-72
2024/04/15 04:26:34;;;;;;;8.23;1.80;;;;;;;11.00;88.31;100273.09;5390139;26;22003;-72
2024/04/15 04:29:04;;;;;;;8.45;1.65;;;;;;;10.87;88.86;100271.06;5387473;26;20358;-70
2024/04/15 04:31:37;;;;;;;8.80;1.60;;;;;;;10.94;88.97;100272.50;5391063;26;20013;-69
2024/04/15 04:34:07;;;;;;;8.10;1.80;;;;;;;10.86;90.18;100271.97;5390536;26;20005;-69
2024/04/15 04:36:37;;;;;;;9.68;1.95;;;;;;;10.89;89.99;100264.00;5364812;26;20622;-69
2024/04/15 04:39:08;;;;;;;8.40;1.85;;;;;;;10.97;90.15;100262.78;5391142;26;20013;-69
2024/04/15 04:41:38;;;;;;;7.03;1.55;;;;;;;11.05;89.18;100261.53;5367074;26;20760;-70
2024/04/15 04:44:09;;;;;;;8.70;2.10;;;;;;;11.11;88.59;100252.59;5387354;26;20013;-69
2024/04/15 04:46:40;;;;;;;8.73;2.20;;;;;;;11.01;88.19;100253.88;5397298;26;20207;-69
2024/04/15 04:49:11;;;;;;;7.18;1.70;;;;;;;10.95;89.69;100243.69;5387627;26;21382;-69
2024/04/15 04:51:41;;;;;;;7.03;1.88;;;;;;;11.04;89.41;100248.50;5395385;26;20005;-69
2024/04/15 04:54:15;;;;;;;8.50;2.30;;;;;;;10.97;89.25;100238.38;5371571;26;20013;-69
2024/04/15 04:56:45;;;;;;;7.82;2.15;;;;;;;10.87;89.72;100239.69;5392816;26;20436;-70
2024/04/15 04:59:15;;;;;;;8.93;2.20;;;;;;;10.87;90.95;100237.91;5363013;26;20013;-69
2024/04/15 05:01:46;;;;;;;9.65;2.05;;;;;;;10.83;92.28;100236.34;5391801;26;21736;-68
2024/04/15 05:04:16;;;;;;;10.40;2.33;;;;;;;11.09;90.21;100236.94;5397911;26;20009;-70
2024/04/15 05:06:46;;;;;;;10.20;2.30;;;;;;;10.90;92.74;100236.94;5393551;26;20008;-70
2024/04/15 05:09:17;;;;;;;6.43;2.22;;;;;;;10.81;95.01;100238.19;5401725;26;20836;-69
2024/04/15 05:11:47;;;;;;;6.85;2.55;;;;;;;10.83;94.87;100232.91;5388514;26;20017;-70
2024/04/15 05:14:17;;;;;;;8.35;2.70;;;;;;;10.92;94.99;100232.50;5349868;26;20591;-69
2024/04/15 05:16:48;;;;;;;6.75;2.38;;;;;;;10.82;95.40;100232.03;5361030;26;20010;-70
2024/04/15 05:19:18;;;;;;;7.03;2.65;;;;;;;10.95;95.87;100224.53;5365185;27;21944;-70
2024/04/15 05:21:48;;;;;;;7.25;2.45;;;;;;;11.20;93.92;100232.13;5358872;27;20006;-69
2024/04/15 05:24:19;;;;;;;8.70;2.33;;;;;;;11.14;93.84;100215.84;5366132;27;20010;-70
2024/04/15 05:26:49;;;;;;;8.82;2.85;;;;;;;10.98;95.14;100221.78;5359564;26;20017;-69
2024/04/15 05:29:20;;;;;;;6.47;2.60;;;;;;;11.11;94.10;100223.81;5362343;26;22072;-69
2024/04/15 05:31:50;;;;;;;10.98;2.95;;;;;;;10.97;94.78;100220.94;5359992;26;20038;-69
2024/04/15 05:34:20;;;;;;;5.40;2.47;;;;;;;11.15;95.41;100220.16;5385988;26;81317;-70
2024/04/15 05:37:09;;;;;;;6.32;2.40;;;;;;;11.28;93.07;100219.53;5561926;25;20331;-72
2024/04/15 05:39:39;;;;;;;7.18;2.65;;;;;;;11.05;94.58;100219.69;5548000;26;20082;-71
2024/04/15 05:42:10;;;;;;;7.43;2.80;;;;;;;11.31;92.29;100205.47;5541699;26;20062;-72
2024/04/15 05:44:40;;;;;;;6.25;2.72;;;;;;;11.34;92.94;100208.81;5547534;26;20018;-71
2024/04/15 05:47:10;;;;;;;8.93;2.60;;;;;;;11.18;93.51;100204.31;5543319;26;20003;-71
2024/04/15 05:49:41;;;;;;;6.22;2.53;;;;;;;11.37;92.24;100203.44;5546424;26;20074;-72
2024/04/15 05:52:11;;;;;;;5.75;2.45;;;;;;;11.24;92.58;100204.06;5541734;26;20080;-72
2024/04/15 05:54:41;;;;;;;8.82;2.83;;;;;;;11.28;92.82;100203.84;5510319;26;20003;-71
2024/04/15 05:57:11;;;;;;;7.03;2.67;;;;;;;11.47;92.15;100206.50;5538182;26;20002;-71
2024/04/15 05:59:42;;;;;;;7.95;2.70;;;;;;;11.56;91.57;100199.09;5542923;26;20002;-72
2024/04/15 06:02:12;;;;;;;6.55;3.20;;;;;;;11.62;90.91;100197.97;5541437;26;19999;-72
2024/04/15 06:04:42;;;;;;;5.78;2.70;;;;;;;11.71;92.50;100195.78;5538573;26;20017;-72
2024/04/15 06:07:13;;;;;;;6.15;3.00;;;;;;;11.83;92.40;100187.38;5543297;26;20021;-72
2024/04/15 06:09:43;;;;;;;6.57;2.80;;;;;;;11.65;92.88;100190.00;5543387;26;20014;-72
2024/04/15 06:12:13;;;;;;;6.40;2.95;;;;;;;11.67;93.78;100186.38;5544613;26;20487;-71
2024/04/15 06:14:43;;;;;;;8.38;3.53;;;;;;;11.48;94.13;100188.09;5543569;26;20003;-72
2024/04/15 06:17:14;;;;;;;8.85;3.25;;;;;;;11.66;94.74;100181.22;5544522;26;20029;-71
2024/04/15 06:19:44;;;;;;;7.57;2.97;;;;;;;11.49;96.04;100175.88;5547242;26;20010;-71
2024/04/15 06:22:18;;;;;;;9.55;3.60;;;;;;;11.64;95.25;100160.31;5545915;26;20048;-72
2024/04/15 06:24:48;;;;;;;9.15;3.80;;;;;;;11.87;94.67;100154.03;5542818;26;20385;-73
2024/04/15 06:27:18;;;;;;;8.20;3.30;;;;;;;11.95;94.15;100152.75;5546679;26;20044;-72
2024/04/15 06:29:49;;;;;;;10.90;3.67;;;;;;;12.17;93.73;100152.56;5542520;26;22341;-71
2024/04/15 06:32:19;;;;;;;9.15;3.97;;;;;;;12.40;93.13;100155.75;5543592;26;20002;-71
2024/04/15 06:34:50;;;;;;;6.95;3.65;;;;;;;12.53;90.61;100145.50;5544785;26;20573;-72
2024/04/15 06:37:20;;;;;;;7.25;3.72;;;;;;;12.93;91.55;100130.31;5546570;26;20083;-73
2024/04/15 06:39:50;;;;;;;9.35;3.67;;;;;;;13.88;86.28;100124.16;5546436;26;20054;-72
2024/04/15 06:42:21;;;;;;;9.45;3.38;;;;;;;14.27;83.24;100121.06;5544918;26;20006;-72
2024/04/15 06:44:52;;;;;;;9.48;3.65;;;;;;;14.01;83.01;100119.03;5544185;26;20091;-73
2024/04/15 06:47:22;;;;;;;8.70;3.22;;;;;;;13.98;82.20;100108.72;5538128;26;20019;-72
2024/04/15 06:49:52;;;;;;;8.63;3.90;;;;;;;14.45;82.20;100112.94;5527097;26;20007;-72
2024/04/15 06:52:22;;;;;;;10.95;3.78;;;;;;;14.14;81.38;100102.50;5528620;26;20014;-72
2024/04/15 06:54:53;;;;;;;10.45;3.67;;;;;;;13.92;84.00;100109.06;5524368;26;20055;-73
2024/04/15 06:57:24;;;;;;;10.85;4.18;;;;;;;13.64;83.25;100106.28;5524510;26;20002;-73
2024/04/15 06:59:55;;;;;;;11.40;3.63;;;;;;;14.11;81.33;100088.69;5525820;26;21094;-73
2024/04/15 07:02:26;;;;;;;10.75;3.55;;;;;;;13.88;82.26;100086.53;5528983;26;20470;-72
2024/04/15 07:04:56;;;;;;;9.32;3.80;;;;;;;13.85;81.49;100090.19;5522553;26;20021;-73
2024/04/15 07:07:26;;;;;;;10.32;4.45;;;;;;;13.79;81.62;100082.66;5526731;26;20653;-73
2024/04/15 07:09:56;;;;;;;10.60;4.00;;;;;;;14.08;78.44;100078.34;5528760;26;20779;-71
2024/04/15 07:12:27;;;;;;;9.32;3.65;;;;;;;13.94;78.99;100075.66;5531740;26;20140;-72
2024/04/15 07:14:57;;;;;;;8.10;3.70;;;;;;;13.91;78.62;100071.44;5525150;26;20017;-72
2024/04/15 07:17:28;;;;;;;9.27;4.07;;;;;;;13.81;77.41;100065.03;5528830;26;20405;-72
2024/04/15 07:19:58;;;;;;;7.75;3.40;;;;;;;14.55;76.17;100058.03;5525188;26;20443;-73
2024/04/15 07:22:29;;;;;;;7.22;3.33;;;;;;;14.74;77.11;100045.47;5528694;26;20007;-72
2024/04/15 07:25:02;;;;;;;10.88;3.58;;;;;;;14.20;78.15;100051.38;5524731;26;21924;-72
2024/04/15 07:27:33;;;;;;;7.97;3.65;;;;;;;14.09;79.71;100049.34;5525394;26;20017;-72
2024/04/15 07:30:03;;;;;;;9.57;3.50;;;;;;;14.80;78.53;100039.84;5524610;26;20501;-72
2024/04/15 07:32:34;;;;;;;10.05;3.40;;;;;;;16.23;74.11;100022.50;5528615;26;20061;-72
2024/04/15 07:35:05;;;;;;;7.35;2.83;;;;;;;15.71;73.98;100021.63;5523534;26;20533;-72
2024/04/15 07:37:35;;;;;;;5.85;3.08;;;;;;;15.17;74.95;100027.78;5530378;26;20454;-72
2024/04/15 07:40:06;;;;;;;7.50;3.05;;;;;;;15.16;74.71;100020.81;5529687;26;20013;-71
2024/04/15 07:42:36;;;;;;;6.70;3.38;;;;;;;14.74;75.88;100027.06;5526181;26;20014;-72
2024/04/15 07:45:07;;;;;;;8.70;3.03;;;;;;;15.32;73.42;100020.75;5523623;26;20346;-72
2024/04/15 07:47:37;;;;;;;7.90;3.00;;;;;;;15.42;71.36;100012.16;5528930;26;20047;-72
2024/04/15 07:50:07;;;;;;;12.77;3.00;;;;;;;15.25;70.60;100003.59;5527377;26;22062;-72
2024/04/15 07:52:38;;;;;;;9.13;2.80;;;;;;;15.04;72.85;100011.06;5526005;26;20006;-72
2024/04/15 07:55:08;;;;;;;9.13;3.05;;;;;;;15.23;73.55;100008.97;5525640;26;22240;-72
2024/04/15 07:57:38;;;;;;;10.48;3.40;;;;;;;14.75;72.97;100005.91;5529694;26;20050;-72
2024/04/15 08:00:09;;;;;;;6.85;3.00;;;;;;;14.75;74.41;100008.53;5523657;26;20355;-72
2024/04/15 08:02:39;;;;;;;7.35;3.30;;;;;;;14.54;73.14;99998.47;5529383;26;20010;-72
2024/04/15 08:05:10;;;;;;;6.03;2.70;;;;;;;14.22;73.64;99999.59;5526505;26;20014;-72
2024/04/15 08:07:40;;;;;;;9.07;3.40;;;;;;;13.92;74.30;100002.19;5525995;26;20017;-72
2024/04/15 08:10:11;;;;;;;11.00;3.45;;;;;;;14.13;74.30;99998.31;5525627;26;20477;-72
2024/04/15 08:12:42;;;;;;;9.80;3.88;;;;;;;13.81;74.38;100006.38;5527064;26;20014;-72
2024/04/15 08:15:13;;;;;;;8.73;3.75;;;;;;;13.83;74.25;100004.50;5522696;26;20475;-72
2024/04/15 08:17:43;;;;;;;8.52;3.88;;;;;;;13.60;75.09;99994.47;5527298;26;20402;-72
2024/04/15 08:20:14;;;;;;;9.32;3.50;;;;;;;13.63;74.75;99994.31;5525065;26;20072;-72
2024/04/15 08:22:47;;;;;;;7.57;3.17;;;;;;;13.77;74.84;99981.22;5525679;26;20075;-73
2024/04/15 08:25:17;;;;;;;7.07;3.67;;;;;;;13.78;74.75;99981.13;5521545;26;20015;-72
2024/04/15 08:27:48;;;;;;;9.05;3.90;;;;;;;13.44;75.19;99991.03;5528545;26;20426;-73
2024/04/15 08:30:19;;;;;;;8.10;4.05;;;;;;;13.51;76.55;99987.13;5524927;26;20346;-72
2024/04/15 08:32:51;;;;;;;9.73;4.18;;;;;;;13.65;79.12;99974.03;5526328;26;20602;-73
2024/04/15 08:35:21;;;;;;;8.52;4.28;;;;;;;13.33;78.32;99970.63;5525553;26;20006;-72
2024/04/15 08:37:51;;;;;;;9.88;4.20;;;;;;;15.07;73.70;99952.13;5528746;26;20041;-72
2024/04/15 08:40:22;;;;;;;8.88;4.45;;;;;;;15.88;69.43;99950.22;5527988;26;20525;-73
2024/04/15 08:42:53;;;;;;;7.25;3.70;;;;;;;17.52;67.62;99939.38;5526429;26;20500;-73
2024/04/15 08:45:24;;;;;;;6.97;3.22;;;;;;;17.94;65.64;99922.94;5523955;26;20006;-72
2024/04/15 08:47:56;;;;;;;7.18;3.42;;;;;;;17.78;64.72;99935.63;5527627;26;20017;-72
2024/04/15 08:50:27;;;;;;;7.38;2.55;;;;;;;18.74;64.53;99918.38;5527030;26;20009;-72
2024/04/15 08:52:57;;;;;;;6.25;2.85;;;;;;;19.29;63.37;99905.88;5522541;26;20937;-72
2024/04/15 08:55:28;;;;;;;6.68;2.70;;;;;;;19.20;63.55;99913.72;5525404;26;20014;-72
2024/04/15 08:57:59;;;;;;;6.45;2.88;;;;;;;20.01;60.96;99899.78;5526234;26;20251;-72
2024/04/15 09:00:32;;;;;;;6.22;2.88;;;;;;;19.46;61.24;99897.38;5528757;26;20011;-73
2024/04/15 09:03:04;;;;;;;6.75;2.38;;;;;;;20.25;61.12;99899.50;5525557;26;21604;-73
2024/04/15 09:05:35;;;;;;;6.95;2.65;;;;;;;19.67;61.46;99890.31;5526669;26;20011;-72
2024/04/15 09:08:06;;;;;;;8.50;3.45;;;;;;;18.97;60.28;99894.38;5524328;26;20469;-72
2024/04/15 09:10:36;;;;;;;8.63;3.45;;;;;;;17.81;62.15;99893.13;5528595;26;20730;-72
2024/04/15 09:13:08;;;;;;;7.20;3.60;;;;;;;17.52;63.30;99895.28;5527170;26;20006;-70
2024/04/15 09:15:39;;;;;;;8.30;3.80;;;;;;;17.68;64.74;99890.53;5524895;26;20276;-70
2024/04/15 09:18:10;;;;;;;6.18;3.30;;;;;;;17.74;63.83;99887.44;5525446;26;20088;-70
2024/04/15 09:20:45;;;;;;;8.07;3.20;;;;;;;17.14;63.02;99891.97;5527039;26;20003;-69
2024/04/15 09:23:15;;;;;;;6.85;3.30;;;;;;;17.25;64.32;99888.53;5527487;26;20018;-70
2024/04/15 09:25:45;;;;;;;5.38;3.28;;;;;;;-138.85;100.00;60025.94;5524779;26;20011;-70
2024/04/15 09:28:16;;;;;;;6.70;3.60;;;;;;;16.70;nan;99880.28;5526491;26;20018;-71
2024/04/15 09:30:46;;;;;;;5.43;3.30;;;;;;;16.22;nan;99888.97;5523521;26;20019;-70
2024/04/15 09:33:21;;;;;;;7.10;3.20;;;;;;;16.34;nan;99882.84;5526377;26;20006;-72
2024/04/15 09:35:52;;;;;;;8.23;3.40;;;;;;;16.22;nan;99873.16;5526939;26;20937;-72
2024/04/15 09:38:23;;;;;;;5.70;3.00;;;;;;;16.52;nan;99864.94;5527326;26;20604;-71
2024/04/15 09:40:54;;;;;;;8.98;3.30;;;;;;;15.50;nan;99866.81;5523731;26;20014;-72
2024/04/15 09:43:26;;;;;;;5.72;3.17;;;;;;;15.45;nan;99872.38;5526728;26;20464;-72
2024/04/15 09:45:59;;;;;;;8.98;3.15;;;;;;;15.35;nan;99866.03;5525548;26;20023;-72
2024/04/15 09:48:29;;;;;;;7.07;3.22;;;;;;;14.75;nan;99876.19;5527997;26;20007;-72
2024/04/15 09:51:05;;;;;;;6.45;3.13;;;;;;;14.96;nan;99871.22;5524221;26;20461;-71
2024/04/15 09:53:42;;;;;;;5.90;2.90;;;;;;;14.40;nan;99874.94;5526739;26;20010;-71
2024/04/15 09:56:26;;;;;;;7.63;3.10;;;;;;;14.17;nan;99870.22;5526046;26;21078;-71
2024/04/15 09:58:57;;;;;;;10.52;3.03;;;;;;;14.35;nan;99867.31;5525810;26;20011;-72
2024/04/15 10:01:31;;;;;;;7.60;3.33;;;;;;;14.38;nan;99861.88;5524244;26;20007;-72
2024/04/15 10:04:03;;;;;;;9.02;3.47;;;;;;;14.35;nan;99851.53;5524280;26;20026;-72
2024/04/15 10:06:42;;;;;;;7.65;3.53;;;;;;;14.73;nan;99841.25;5523759;26;20006;-72
2024/04/15 10:09:13;;;;;;;6.82;3.45;;;;;;;15.00;nan;99821.88;5526151;26;20049;-71
2024/04/15 10:11:49;;;;;;;7.35;3.30;;;;;;;15.74;nan;99813.28;5525896;26;21585;-73
2024/04/15 10:14:21;;;;;;;8.93;3.80;;;;;;;15.94;nan;99789.06;5523204;26;20017;-72
2024/04/15 10:16:54;;;;;;;8.57;3.45;;;;;;;16.18;nan;99794.41;5524893;26;22209;-72
2024/04/15 10:19:28;;;;;;;7.68;3.58;;;;;;;15.80;nan;99777.78;5526973;26;20101;-73
2024/04/15 10:22:00;;;;;;;8.43;3.85;;;;;;;15.92;nan;99774.28;5526401;26;22044;-73
2024/04/15 10:24:31;;;;;;;8.63;3.47;;;;;;;15.71;nan;99767.88;5530381;26;20007;-72
2024/04/15 10:27:03;;;;;;;7.22;3.20;;;;;;;15.72;nan;99773.03;5524722;26;20456;-72
2024/04/15 10:29:37;;;;;;;8.70;3.42;;;;;;;15.86;nan;99769.47;5529424;26;20111;-71
2024/04/15 10:32:08;;;;;;;9.07;3.40;;;;;;;16.09;nan;99759.00;5528913;26;20109;-72
2024/04/15 10:34:42;;;;;;;5.40;2.78;;;;;;;16.53;nan;99761.94;5524476;26;20435;-72
2024/04/15 10:37:14;;;;;;;7.40;3.20;;;;;;;16.40;nan;99755.03;5529527;26;20015;-73
2024/04/15 10:39:48;;;;;;;6.82;2.80;;;;;;;16.62;nan;99739.31;5532292;26;20335;-72
2024/04/15 10:42:18;;;;;;;6.25;2.70;;;;;;;16.39;nan;99738.34;5528466;26;20469;-73
2024/04/15 10:44:51;;;;;;;7.95;2.88;;;;;;;16.23;nan;99732.44;5525925;26;20074;-72
2024/04/15 10:47:21;;;;;;;7.75;2.85;;;;;;;16.05;nan;99731.13;5527567;26;19999;-72
2024/04/15 10:49:52;;;;;;;5.97;3.00;;;;;;;16.45;nan;99714.19;5527406;26;20307;-71
2024/04/15 10:52:22;;;;;;;6.78;2.95;;;;;;;16.57;nan;99702.72;5527414;26;20018;-72
2024/04/15 10:54:52;;;;;;;9.88;3.10;;;;;;;16.67;nan;99685.25;5526478;26;20100;-73
2024/04/15 10:57:23;;;;;;;9.30;3.03;;;;;;;16.95;nan;99687.53;5529548;26;20106;-72
2024/04/15 10:59:53;;;;;;;7.97;3.13;;;;;;;17.02;nan;99675.53;5527353;26;20773;-72
2024/04/15 11:02:23;;;;;;;11.25;3.53;;;;;;;17.76;nan;99675.84;5528439;26;20017;-73
2024/04/15 11:04:53;;;;;;;11.25;3.53;;;;;;;17.26;nan;99663.94;5527073;26;19998;-72
2024/04/15 11:07:24;;;;;;;9.20;3.53;;;;;;;17.11;nan;99664.28;5527660;26;20046;-72
2024/04/15 11:09:56;;;;;;;8.18;3.42;;;;;;;17.27;nan;99655.03;5529939;26;22023;-72
2024/04/15 11:12:27;;;;;;;13.65;3.50;;;;;;;17.42;nan;99645.09;5528673;26;20018;-72
2024/04/15 11:14:58;;;;;;;7.45;3.20;;;;;;;17.36;nan;99638.53;5522927;26;20043;-72
2024/04/15 11:17:28;;;;;;;10.30;2.88;;;;;;;17.15;nan;99623.47;5530850;26;21388;-71
2024/04/15 11:20:04;;;;;;;7.15;2.88;;;;;;;17.26;nan;99615.53;5526887;26;20076;-71
2024/04/15 11:22:35;;;;;;;7.07;2.83;;;;;;;17.15;nan;99607.63;5530048;26;20039;-70
2024/04/15 11:25:08;;;;;;;8.93;3.20;;;;;;;17.38;nan;99596.13;5687300;21;20004;-73
2024/04/15 11:27:43;;;;;;;6.10;2.55;;;;;;;17.76;nan;99591.25;5586095;26;19999;-71
2024/04/15 11:30:18;;;;;;;7.40;2.30;;;;;;;17.22;nan;99588.53;5586196;26;20084;-72
2024/04/15 11:32:50;;;;;;;5.87;2.60;;;;;;;17.38;nan;99577.63;5587068;26;20000;-73
2024/04/15 11:35:20;;;;;;;9.27;2.88;;;;;;;17.32;nan;99578.91;5585229;26;19999;-71
2024/04/15 11:38:01;;;;;;;7.32;2.55;;;;;;;17.27;nan;99590.78;5586839;26;20011;-71
2024/04/15 11:40:32;;;;;;;8.05;2.83;;;;;;;17.02;nan;99572.56;5583615;26;20068;-69
2024/04/15 11:43:02;;;;;;;7.15;2.72;;;;;;;17.26;nan;99568.00;5586468;26;19996;-71
2024/04/15 11:45:33;;;;;;;6.95;2.40;;;;;;;17.70;nan;99562.69;5586410;26;20233;-69